createdAt,value
2022-08-29T00:03:15.389Z,17.23
2022-08-29T00:08:18.779Z,17.28
2022-08-29T00:13:22.549Z,17.26
2022-08-29T00:18:27.269Z,17.24
2022-08-29T00:23:29.885Z,17.11
2022-08-29T00:28:32.725Z,17.00
2022-08-29T00:33:38.285Z,16.95
2022-08-29T00:38:42.206Z,16.93
2022-08-29T00:43:46.349Z,16.87
2022-08-29T00:48:56.563Z,16.84
2022-08-29T00:54:03.069Z,16.77
2022-08-29T00:59:11.797Z,16.70
2022-08-29T01:04:23.867Z,16.65
2022-08-29T01:09:28.174Z,16.65
2022-08-29T01:14:31.040Z,16.62
2022-08-29T01:19:45.010Z,16.67
2022-08-29T01:24:51.716Z,16.62
2022-08-29T01:29:54.492Z,16.59
2022-08-29T01:34:57.279Z,16.58
2022-08-29T01:40:01.554Z,16.58
2022-08-29T01:45:05.746Z,16.46
2022-08-29T01:50:15.425Z,16.47
2022-08-29T01:55:19.687Z,16.44
2022-08-29T02:00:22.487Z,16.41
2022-08-29T02:05:25.227Z,16.29
2022-08-29T02:10:30.373Z,16.17
2022-08-29T02:15:33.663Z,16.07
2022-08-29T02:20:36.487Z,15.89
2022-08-29T02:25:44.180Z,15.63
2022-08-29T02:30:49.887Z,15.76
2022-08-29T02:35:56.843Z,15.81
2022-08-29T02:41:02.017Z,15.81
2022-08-29T02:46:05.760Z,15.77
2022-08-29T02:51:08.583Z,15.55
2022-08-29T02:56:14.338Z,15.61
2022-08-29T03:01:17.836Z,15.63
2022-08-29T03:06:21.779Z,15.67
2022-08-29T03:11:27.056Z,15.68
2022-08-29T03:16:29.852Z,15.68
2022-08-29T03:21:33.377Z,15.66
2022-08-29T03:26:37.903Z,15.60
2022-08-29T03:31:40.724Z,15.59
2022-08-29T03:36:43.528Z,15.51
2022-08-29T03:41:47.910Z,15.34
2022-08-29T03:46:50.892Z,15.23
2022-08-29T03:51:53.765Z,15.19
2022-08-29T03:56:57.900Z,15.19
2022-08-29T04:02:00.825Z,15.27
2022-08-29T04:07:05.946Z,15.26
2022-08-29T04:12:11.426Z,15.23
2022-08-29T04:17:14.479Z,15.18
2022-08-29T04:22:17.281Z,15.21
2022-08-29T04:27:21.681Z,15.09
2022-08-29T04:32:24.566Z,14.98
2022-08-29T04:37:27.834Z,14.88
2022-08-29T04:42:32.093Z,14.90
2022-08-29T04:47:36.219Z,14.93
2022-08-29T04:52:39.280Z,14.97
2022-08-29T04:57:45.077Z,14.94
2022-08-29T05:02:48.072Z,14.74
2022-08-29T05:07:50.874Z,14.76
2022-08-29T05:12:55.012Z,14.85
2022-08-29T05:17:58.170Z,14.93
2022-08-29T05:23:00.940Z,15.00
2022-08-29T05:28:05.506Z,15.07
2022-08-29T05:33:09.162Z,15.11
2022-08-29T05:38:12.400Z,15.20
2022-08-29T05:43:16.552Z,15.31
2022-08-29T05:48:19.299Z,15.43
2022-08-29T05:53:22.120Z,15.47
2022-08-29T05:58:26.524Z,15.60
2022-08-29T06:03:29.358Z,15.68
2022-08-29T06:08:32.187Z,15.77
2022-08-29T06:13:36.385Z,15.93
2022-08-29T06:18:39.227Z,16.03
2022-08-29T06:23:43.841Z,16.15
2022-08-29T06:28:48.075Z,16.28
2022-08-29T06:33:52.656Z,16.43
2022-08-29T06:38:57.085Z,16.60
2022-08-29T06:44:02.479Z,16.71
2022-08-29T06:49:11.864Z,16.80
2022-08-29T06:54:14.704Z,16.96
2022-08-29T06:59:20.696Z,17.17
2022-08-29T07:04:26.722Z,17.32
2022-08-29T07:09:31.031Z,17.41
2022-08-29T07:14:35.321Z,17.60
2022-08-29T07:19:38.079Z,17.81
2022-08-29T07:24:41.095Z,18.04
2022-08-29T07:29:50.056Z,18.18
2022-08-29T07:34:56.091Z,18.39
2022-08-29T07:39:59.248Z,18.60
2022-08-29T07:45:03.430Z,18.77
2022-08-29T07:50:09.536Z,18.95
2022-08-29T07:55:12.364Z,19.11
2022-08-29T08:00:16.801Z,19.33
2022-08-29T08:05:19.761Z,19.47
2022-08-29T08:10:23.866Z,19.58
2022-08-29T08:15:28.234Z,19.66
2022-08-29T08:20:31.140Z,19.71
2022-08-29T08:25:33.876Z,19.89
2022-08-29T08:30:38.167Z,20.02
2022-08-29T08:35:42.583Z,20.16
2022-08-29T08:40:50.574Z,20.30
2022-08-29T08:45:56.291Z,20.51
2022-08-29T08:51:04.836Z,20.55
2022-08-29T08:56:14.108Z,20.67
2022-08-29T09:01:23.948Z,20.89
2022-08-29T09:06:56.421Z,21.15
2022-08-29T09:12:10.132Z,21.33
2022-08-29T09:17:21.609Z,21.43
2022-08-29T09:22:27.463Z,21.53
2022-08-29T09:27:37.096Z,21.63
2022-08-29T09:33:00.743Z,21.66
2022-08-29T09:38:05.921Z,21.72
2022-08-29T09:43:08.921Z,21.85
2022-08-29T09:48:17.810Z,22.05
2022-08-29T09:53:25.329Z,22.21
2022-08-29T09:58:34.240Z,22.37
2022-08-29T10:03:45.000Z,22.47
2022-08-29T10:08:59.698Z,22.63
2022-08-29T10:14:07.386Z,22.79
2022-08-29T10:19:34.191Z,22.96
2022-08-29T10:24:55.071Z,23.13
2022-08-29T10:30:06.563Z,23.29
2022-08-29T10:35:18.147Z,23.34
2022-08-29T10:40:27.277Z,23.51
2022-08-29T10:45:39.806Z,23.78
2022-08-29T10:51:07.804Z,24.14
2022-08-29T10:56:18.744Z,24.34
2022-08-29T11:01:38.119Z,24.58
2022-08-29T11:06:47.522Z,24.84
2022-08-29T11:12:03.348Z,25.02
2022-08-29T11:17:13.815Z,25.17
2022-08-29T11:22:23.540Z,25.41
2022-08-29T11:27:37.697Z,25.75
2022-08-29T11:32:51.740Z,25.94
2022-08-29T11:38:30.084Z,26.15
2022-08-29T11:43:38.050Z,26.28
2022-08-29T11:48:43.567Z,26.29
2022-08-29T11:53:48.578Z,26.14
2022-08-29T11:58:53.829Z,26.06
2022-08-29T12:03:57.803Z,26.16
2022-08-29T12:09:13.375Z,26.37
2022-08-29T12:14:34.243Z,26.67
2022-08-29T12:19:48.376Z,26.84
2022-08-29T12:24:57.413Z,26.98
2022-08-29T12:30:01.007Z,27.03
2022-08-29T12:35:21.591Z,27.11
2022-08-29T12:40:58.087Z,27.11
2022-08-29T12:46:03.785Z,27.16
2022-08-29T12:51:07.179Z,27.20
2022-08-29T12:56:18.969Z,27.42
2022-08-29T13:01:27.941Z,27.70
2022-08-29T13:06:31.689Z,27.94
2022-08-29T13:11:36.006Z,28.00
2022-08-29T13:16:40.148Z,28.14
2022-08-29T13:21:43.902Z,28.23
2022-08-29T13:27:01.059Z,28.26
2022-08-29T13:32:19.358Z,28.20
2022-08-29T13:37:30.199Z,28.41
2022-08-29T13:42:34.477Z,28.78
2022-08-29T13:47:51.225Z,29.12
2022-08-29T13:52:55.500Z,29.25
2022-08-29T13:57:59.740Z,29.46
2022-08-29T14:03:03.287Z,29.71
2022-08-29T14:08:07.637Z,29.75
2022-08-29T14:13:12.194Z,30.01
2022-08-29T14:18:16.236Z,30.28
2022-08-29T14:23:23.155Z,30.40
2022-08-29T14:28:27.594Z,30.45
2022-08-29T14:33:30.401Z,30.79
2022-08-29T14:38:33.228Z,31.32
2022-08-29T14:43:39.861Z,31.96
2022-08-29T14:48:42.925Z,32.29
2022-08-29T14:53:54.154Z,32.50
2022-08-29T14:58:59.288Z,32.67
2022-08-29T15:04:02.089Z,32.83
2022-08-29T15:09:05.178Z,32.75
2022-08-29T15:14:09.433Z,33.17
2022-08-29T15:19:48.776Z,33.58
2022-08-29T15:24:35.325Z,33.81
2022-08-29T15:29:40.878Z,33.73
2022-08-29T15:34:43.814Z,33.57
2022-08-29T15:39:46.841Z,33.39
2022-08-29T15:44:51.440Z,33.47
2022-08-29T15:49:55.935Z,34.11
2022-08-29T15:54:58.717Z,34.37
2022-08-29T16:00:03.153Z,33.90
2022-08-29T16:21:29.193Z,33.61
2022-08-29T16:26:33.329Z,34.18
2022-08-29T16:31:37.417Z,34.56
2022-08-29T16:36:42.362Z,35.08
2022-08-29T16:41:45.526Z,35.49
2022-08-29T16:46:48.332Z,35.71
2022-08-29T16:51:53.205Z,35.36
2022-08-29T16:56:56.973Z,34.82
2022-08-29T17:01:59.750Z,34.56
2022-08-29T17:07:04.182Z,34.35
2022-08-29T17:12:06.330Z,34.42
2022-08-29T17:17:09.741Z,34.36
2022-08-29T17:22:18.068Z,33.62
2022-08-29T17:27:22.714Z,32.54
2022-08-29T17:32:26.736Z,31.56
2022-08-29T17:37:35.898Z,30.85
2022-08-29T17:42:39.130Z,30.20
2022-08-29T17:47:41.897Z,29.58
2022-08-29T17:52:46.121Z,29.13
2022-08-29T17:57:49.004Z,28.59
2022-08-29T18:02:52.268Z,28.12
2022-08-29T18:07:56.907Z,27.78
2022-08-29T18:12:59.849Z,27.42
2022-08-29T18:18:02.614Z,27.20
2022-08-29T18:23:06.792Z,26.97
2022-08-29T18:28:09.573Z,26.78
2022-08-29T18:33:13.017Z,26.40
2022-08-29T18:38:17.661Z,26.13
2022-08-29T18:43:21.491Z,25.76
2022-08-29T18:48:29.009Z,25.51
2022-08-29T18:53:33.797Z,25.22
2022-08-29T18:58:37.555Z,24.97
2022-08-29T19:03:41.042Z,24.86
2022-08-29T19:08:45.364Z,24.73
2022-08-29T19:13:52.340Z,24.61
2022-08-29T19:18:55.514Z,24.57
2022-08-29T19:23:59.701Z,24.25
2022-08-29T19:29:06.605Z,24.13
2022-08-29T19:34:09.426Z,23.73
2022-08-29T19:39:13.614Z,23.52
2022-08-29T19:44:16.193Z,23.47
2022-08-29T19:49:19.363Z,23.29
2022-08-29T19:54:23.721Z,22.98
2022-08-29T19:59:26.506Z,22.89
2022-08-29T20:04:30.235Z,22.74
2022-08-29T20:09:34.436Z,22.53
2022-08-29T20:14:37.121Z,22.47
2022-08-29T20:19:41.037Z,22.22
2022-08-29T20:24:45.206Z,22.02
2022-08-29T20:29:48.061Z,21.64
2022-08-29T20:34:50.959Z,21.61
2022-08-29T20:39:55.824Z,21.66
2022-08-29T20:44:59.998Z,21.68
2022-08-29T20:50:03.008Z,21.64
2022-08-29T20:55:07.643Z,21.55
2022-08-29T21:00:11.807Z,21.49
2022-08-29T21:31:41.656Z,20.10
2022-08-29T21:36:44.737Z,20.20
2022-08-29T21:41:47.680Z,20.38
2022-08-29T21:46:52.682Z,20.36
2022-08-29T21:51:56.090Z,20.18
2022-08-29T21:56:58.942Z,20.22
2022-08-29T22:02:03.769Z,20.22
2022-08-29T22:07:07.385Z,20.21
2022-08-29T22:12:10.807Z,20.20
2022-08-29T22:17:16.266Z,20.15
2022-08-29T22:22:19.072Z,20.03
2022-08-29T22:27:21.843Z,19.99
2022-08-29T22:32:26.113Z,19.89
2022-08-29T22:37:36.462Z,19.78
2022-08-29T22:42:41.760Z,19.62
2022-08-29T22:47:47.393Z,19.45
2022-08-29T22:52:50.695Z,19.21
2022-08-29T22:57:53.447Z,19.13
2022-08-29T23:02:57.693Z,19.01
2022-08-29T23:08:00.578Z,18.90
2022-08-29T23:13:03.347Z,18.77
2022-08-29T23:18:07.597Z,18.62
2022-08-29T23:23:10.358Z,18.54
2022-08-29T23:28:13.153Z,18.52
2022-08-29T23:33:18.297Z,18.55
2022-08-29T23:38:22.337Z,18.45
2022-08-29T23:43:25.559Z,18.38
2022-08-29T23:48:30.472Z,18.31
2022-08-29T23:53:33.269Z,18.09
2022-08-29T23:58:36.190Z,17.86
